sensor_id;sensor_type;location;lat;lon;timestamp;pressure;altitude;pressure_sealevel;temperature;humidity
49827;BME280;35715;51.570;6.036;2023-04-03T00:01:02;102856.66;;;3.94;82.47
49827;BME280;35715;51.570;6.036;2023-04-03T00:03:28;102847.19;;;3.93;82.35
49827;BME280;35715;51.570;6.036;2023-04-03T00:05:53;102854.06;;;3.86;81.76
49827;BME280;35715;51.570;6.036;2023-04-03T00:08:19;102850.16;;;3.76;81.74
49827;BME280;35715;51.570;6.036;2023-04-03T00:10:44;102853.34;;;3.67;81.67
49827;BME280;35715;51.570;6.036;2023-04-03T00:13:09;102858.44;;;3.67;81.81
49827;BME280;35715;51.570;6.036;2023-04-03T00:15:35;102855.19;;;3.68;82.16
49827;BME280;35715;51.570;6.036;2023-04-03T00:18:01;102861.00;;;3.67;81.95
49827;BME280;35715;51.570;6.036;2023-04-03T00:20:26;102854.06;;;3.66;82.12
49827;BME280;35715;51.570;6.036;2023-04-03T00:22:52;102855.91;;;3.67;81.81
49827;BME280;35715;51.570;6.036;2023-04-03T00:25:18;102866.44;;;3.63;81.33
49827;BME280;35715;51.570;6.036;2023-04-03T00:27:43;102863.09;;;3.57;80.85
49827;BME280;35715;51.570;6.036;2023-04-03T00:30:09;102862.31;;;3.51;81.03
49827;BME280;35715;51.570;6.036;2023-04-03T00:32:35;102865.72;;;3.44;81.19
49827;BME280;35715;51.570;6.036;2023-04-03T00:35:00;102862.97;;;3.43;81.61
49827;BME280;35715;51.570;6.036;2023-04-03T00:37:26;102866.63;;;3.45;81.88
49827;BME280;35715;51.570;6.036;2023-04-03T00:39:51;102866.81;;;3.46;82.29
49827;BME280;35715;51.570;6.036;2023-04-03T00:42:16;102871.72;;;3.45;82.06
49827;BME280;35715;51.570;6.036;2023-04-03T00:47:08;102868.00;;;3.35;81.88
49827;BME280;35715;51.570;6.036;2023-04-03T00:49:43;102871.59;;;3.30;81.72
49827;BME280;35715;51.570;6.036;2023-04-03T00:52:14;102874.34;;;3.32;81.86
49827;BME280;35715;51.570;6.036;2023-04-03T00:54:41;102874.88;;;3.29;81.80
49827;BME280;35715;51.570;6.036;2023-04-03T00:57:07;102879.38;;;3.25;82.05
49827;BME280;35715;51.570;6.036;2023-04-03T00:59:35;102875.91;;;3.24;82.18
49827;BME280;35715;51.570;6.036;2023-04-03T01:02:03;102871.53;;;3.23;82.14
49827;BME280;35715;51.570;6.036;2023-04-03T01:04:36;102878.66;;;3.26;82.33
49827;BME280;35715;51.570;6.036;2023-04-03T01:07:06;102870.41;;;3.21;82.38
49827;BME280;35715;51.570;6.036;2023-04-03T01:09:40;102876.81;;;3.25;82.78
49827;BME280;35715;51.570;6.036;2023-04-03T01:12:19;102873.38;;;3.24;82.68
49827;BME280;35715;51.570;6.036;2023-04-03T01:14:46;102878.06;;;3.21;82.85
49827;BME280;35715;51.570;6.036;2023-04-03T01:17:31;102882.22;;;3.20;83.04
49827;BME280;35715;51.570;6.036;2023-04-03T01:25:26;102886.03;;;3.17;83.06
49827;BME280;35715;51.570;6.036;2023-04-03T01:30:24;102892.50;;;3.08;84.91
49827;BME280;35715;51.570;6.036;2023-04-03T01:32:51;102890.34;;;2.98;86.69
49827;BME280;35715;51.570;6.036;2023-04-03T01:35:16;102888.19;;;3.01;86.75
49827;BME280;35715;51.570;6.036;2023-04-03T01:37:41;102896.03;;;3.02;87.14
49827;BME280;35715;51.570;6.036;2023-04-03T01:40:06;102895.03;;;3.08;86.81
49827;BME280;35715;51.570;6.036;2023-04-03T01:42:32;102896.75;;;3.14;86.44
49827;BME280;35715;51.570;6.036;2023-04-03T01:44:57;102896.22;;;3.17;86.19
49827;BME280;35715;51.570;6.036;2023-04-03T01:47:22;102889.28;;;3.16;85.88
49827;BME280;35715;51.570;6.036;2023-04-03T01:49:49;102892.19;;;2.99;86.88
49827;BME280;35715;51.570;6.036;2023-04-03T01:52:14;102899.84;;;2.99;87.25
49827;BME280;35715;51.570;6.036;2023-04-03T01:54:39;102901.16;;;3.02;87.09
49827;BME280;35715;51.570;6.036;2023-04-03T01:57:04;102891.38;;;2.93;87.10
49827;BME280;35715;51.570;6.036;2023-04-03T01:59:30;102887.75;;;2.91;88.15
49827;BME280;35715;51.570;6.036;2023-04-03T02:01:55;102898.25;;;2.87;88.84
49827;BME280;35715;51.570;6.036;2023-04-03T02:04:20;102897.22;;;2.79;89.52
49827;BME280;35715;51.570;6.036;2023-04-03T02:06:46;102896.44;;;2.73;90.38
49827;BME280;35715;51.570;6.036;2023-04-03T02:09:11;102896.09;;;2.77;90.32
49827;BME280;35715;51.570;6.036;2023-04-03T02:11:36;102900.81;;;2.61;90.44
49827;BME280;35715;51.570;6.036;2023-04-03T02:14:01;102906.81;;;2.61;91.31
49827;BME280;35715;51.570;6.036;2023-04-03T02:16:27;102898.25;;;2.61;90.30
49827;BME280;35715;51.570;6.036;2023-04-03T02:18:53;102909.66;;;2.57;90.21
49827;BME280;35715;51.570;6.036;2023-04-03T02:21:18;102908.56;;;2.55;90.51
49827;BME280;35715;51.570;6.036;2023-04-03T02:23:44;102907.84;;;2.56;91.16
49827;BME280;35715;51.570;6.036;2023-04-03T02:26:13;102907.44;;;2.53;91.49
49827;BME280;35715;51.570;6.036;2023-04-03T02:28:38;102902.84;;;2.51;91.29
49827;BME280;35715;51.570;6.036;2023-04-03T02:31:04;102907.94;;;2.51;91.12
49827;BME280;35715;51.570;6.036;2023-04-03T02:33:31;102912.53;;;2.53;92.27
49827;BME280;35715;51.570;6.036;2023-04-03T02:35:56;102911.09;;;2.55;92.55
49827;BME280;35715;51.570;6.036;2023-04-03T02:38:31;102912.13;;;2.63;91.96
49827;BME280;35715;51.570;6.036;2023-04-03T02:41:00;102919.56;;;2.61;91.26
49827;BME280;35715;51.570;6.036;2023-04-03T02:43:26;102914.56;;;2.69;91.75
49827;BME280;35715;51.570;6.036;2023-04-03T02:45:51;102914.88;;;2.64;91.58
49827;BME280;35715;51.570;6.036;2023-04-03T02:48:19;102914.66;;;2.63;90.57
49827;BME280;35715;51.570;6.036;2023-04-03T02:50:45;102920.16;;;2.66;90.71
49827;BME280;35715;51.570;6.036;2023-04-03T02:53:10;102918.34;;;2.65;91.65
49827;BME280;35715;51.570;6.036;2023-04-03T02:55:35;102915.38;;;2.62;90.98
49827;BME280;35715;51.570;6.036;2023-04-03T02:58:07;102913.84;;;2.57;90.52
49827;BME280;35715;51.570;6.036;2023-04-03T03:00:32;102909.66;;;2.57;90.24
49827;BME280;35715;51.570;6.036;2023-04-03T03:02:58;102907.53;;;2.60;89.84
49827;BME280;35715;51.570;6.036;2023-04-03T03:05:23;102906.00;;;2.55;89.96
49827;BME280;35715;51.570;6.036;2023-04-03T03:07:50;102906.50;;;2.53;89.47
49827;BME280;35715;51.570;6.036;2023-04-03T03:10:15;102913.53;;;2.48;89.38
49827;BME280;35715;51.570;6.036;2023-04-03T03:12:40;102912.94;;;2.56;89.41
49827;BME280;35715;51.570;6.036;2023-04-03T03:15:06;102914.16;;;2.53;90.17
49827;BME280;35715;51.570;6.036;2023-04-03T03:17:31;102915.38;;;2.49;89.99
49827;BME280;35715;51.570;6.036;2023-04-03T03:19:58;102907.53;;;2.47;89.71
49827;BME280;35715;51.570;6.036;2023-04-03T03:22:23;102909.38;;;2.48;89.92
49827;BME280;35715;51.570;6.036;2023-04-03T03:24:49;102919.16;;;2.45;89.29
49827;BME280;35715;51.570;6.036;2023-04-03T03:27:14;102918.63;;;2.48;89.65
49827;BME280;35715;51.570;6.036;2023-04-03T03:29:51;102916.81;;;2.47;89.44
49827;BME280;35715;51.570;6.036;2023-04-03T03:32:16;102925.16;;;2.46;89.46
49827;BME280;35715;51.570;6.036;2023-04-03T03:34:41;102917.63;;;2.40;89.10
49827;BME280;35715;51.570;6.036;2023-04-03T03:37:06;102923.84;;;2.42;88.25
49827;BME280;35715;51.570;6.036;2023-04-03T03:39:49;102928.22;;;2.43;88.41
49827;BME280;35715;51.570;6.036;2023-04-03T03:42:14;102923.66;;;2.41;88.67
49827;BME280;35715;51.570;6.036;2023-04-03T03:44:39;102936.97;;;2.33;88.64
49827;BME280;35715;51.570;6.036;2023-04-03T03:47:05;102941.47;;;2.41;87.98
49827;BME280;35715;51.570;6.036;2023-04-03T03:49:32;102932.19;;;2.41;87.54
49827;BME280;35715;51.570;6.036;2023-04-03T03:51:57;102936.19;;;2.39;87.10
49827;BME280;35715;51.570;6.036;2023-04-03T03:54:22;102939.63;;;2.40;87.18
49827;BME280;35715;51.570;6.036;2023-04-03T03:56:47;102939.84;;;2.41;87.31
49827;BME280;35715;51.570;6.036;2023-04-03T03:59:13;102937.59;;;2.37;87.26
49827;BME280;35715;51.570;6.036;2023-04-03T04:01:38;102947.28;;;2.40;87.08
49827;BME280;35715;51.570;6.036;2023-04-03T04:04:03;102948.78;;;2.45;87.00
49827;BME280;35715;51.570;6.036;2023-04-03T04:06:28;102954.31;;;2.35;86.52
49827;BME280;35715;51.570;6.036;2023-04-03T04:09:11;102953.97;;;2.26;86.24
49827;BME280;35715;51.570;6.036;2023-04-03T04:11:37;102953.78;;;2.25;87.17
49827;BME280;35715;51.570;6.036;2023-04-03T04:14:04;102952.13;;;2.25;86.87
49827;BME280;35715;51.570;6.036;2023-04-03T04:16:29;102953.06;;;2.26;86.94
49827;BME280;35715;51.570;6.036;2023-04-03T04:18:55;102954.88;;;2.27;87.16
49827;BME280;35715;51.570;6.036;2023-04-03T04:21:20;102956.19;;;2.18;87.06
49827;BME280;35715;51.570;6.036;2023-04-03T04:23:45;102953.66;;;2.18;87.72
49827;BME280;35715;51.570;6.036;2023-04-03T04:26:10;102956.78;;;2.09;87.71
49827;BME280;35715;51.570;6.036;2023-04-03T04:28:47;102958.41;;;2.09;88.48
49827;BME280;35715;51.570;6.036;2023-04-03T04:31:12;102949.22;;;2.04;88.75
49827;BME280;35715;51.570;6.036;2023-04-03T04:33:37;102954.47;;;2.11;87.60
49827;BME280;35715;51.570;6.036;2023-04-03T04:36:02;102955.44;;;2.06;87.19
49827;BME280;35715;51.570;6.036;2023-04-03T04:38:30;102955.97;;;2.03;87.75
49827;BME280;35715;51.570;6.036;2023-04-03T04:40:55;102954.31;;;2.04;87.95
49827;BME280;35715;51.570;6.036;2023-04-03T04:43:20;102950.47;;;2.00;88.38
49827;BME280;35715;51.570;6.036;2023-04-03T04:45:45;102960.09;;;1.90;88.57
49827;BME280;35715;51.570;6.036;2023-04-03T04:48:21;102969.22;;;1.82;89.34
49827;BME280;35715;51.570;6.036;2023-04-03T04:50:46;102969.31;;;1.76;89.78
49827;BME280;35715;51.570;6.036;2023-04-03T04:53:11;102969.09;;;1.75;89.22
49827;BME280;35715;51.570;6.036;2023-04-03T04:55:37;102972.53;;;1.75;89.55
49827;BME280;35715;51.570;6.036;2023-04-03T05:00:31;102969.69;;;1.67;89.67
49827;BME280;35715;51.570;6.036;2023-04-03T05:02:56;102978.66;;;1.70;89.54
49827;BME280;35715;51.570;6.036;2023-04-03T05:05:22;102972.66;;;1.70;90.65
49827;BME280;35715;51.570;6.036;2023-04-03T05:07:52;102980.13;;;1.63;89.96
49827;BME280;35715;51.570;6.036;2023-04-03T05:10:17;102974.78;;;1.67;90.83
49827;BME280;35715;51.570;6.036;2023-04-03T05:12:42;102972.44;;;1.68;90.25
49827;BME280;35715;51.570;6.036;2023-04-03T05:15:08;102979.56;;;1.71;90.02
49827;BME280;35715;51.570;6.036;2023-04-03T05:17:33;102987.59;;;1.74;89.92
49827;BME280;35715;51.570;6.036;2023-04-03T05:19:58;102985.78;;;1.73;89.80
49827;BME280;35715;51.570;6.036;2023-04-03T05:22:23;102989.25;;;1.73;89.86
49827;BME280;35715;51.570;6.036;2023-04-03T05:24:49;102998.72;;;1.74;89.89
49827;BME280;35715;51.570;6.036;2023-04-03T05:27:14;102996.06;;;1.80;89.41
49827;BME280;35715;51.570;6.036;2023-04-03T05:29:44;103000.13;;;1.91;89.08
49827;BME280;35715;51.570;6.036;2023-04-03T05:32:10;102999.59;;;1.93;88.33
49827;BME280;35715;51.570;6.036;2023-04-03T05:34:36;103000.63;;;1.88;88.39
49827;BME280;35715;51.570;6.036;2023-04-03T05:37:02;103005.34;;;1.80;87.48
49827;BME280;35715;51.570;6.036;2023-04-03T05:39:29;103004.03;;;1.76;88.85
49827;BME280;35715;51.570;6.036;2023-04-03T05:41:55;103009.53;;;1.79;89.92
49827;BME280;35715;51.570;6.036;2023-04-03T05:44:20;103012.91;;;1.85;89.08
49827;BME280;35715;51.570;6.036;2023-04-03T05:46:46;103010.59;;;1.87;89.42
49827;BME280;35715;51.570;6.036;2023-04-03T05:49:11;103011.06;;;1.84;88.11
49827;BME280;35715;51.570;6.036;2023-04-03T05:51:36;103006.47;;;1.82;88.86
49827;BME280;35715;51.570;6.036;2023-04-03T05:54:04;103006.47;;;1.82;89.09
49827;BME280;35715;51.570;6.036;2023-04-03T05:56:32;103005.97;;;1.84;90.33
49827;BME280;35715;51.570;6.036;2023-04-03T05:58:59;103010.78;;;1.88;87.59
49827;BME280;35715;51.570;6.036;2023-04-03T06:01:24;103004.91;;;1.95;86.86
49827;BME280;35715;51.570;6.036;2023-04-03T06:03:50;103006.38;;;2.06;87.31
49827;BME280;35715;51.570;6.036;2023-04-03T06:06:15;103004.22;;;2.27;87.65
49827;BME280;35715;51.570;6.036;2023-04-03T06:08:41;103010.16;;;2.46;85.02
49827;BME280;35715;51.570;6.036;2023-04-03T06:11:08;103012.69;;;2.34;86.37
49827;BME280;35715;51.570;6.036;2023-04-03T06:13:33;103019.28;;;2.26;84.48
49827;BME280;35715;51.570;6.036;2023-04-03T06:16:00;103014.09;;;2.31;87.12
49827;BME280;35715;51.570;6.036;2023-04-03T06:18:25;103024.94;;;2.49;85.05
49827;BME280;35715;51.570;6.036;2023-04-03T06:20:51;103025.81;;;2.68;83.26
49827;BME280;35715;51.570;6.036;2023-04-03T06:23:16;103021.72;;;2.89;82.11
49827;BME280;35715;51.570;6.036;2023-04-03T06:25:41;103030.22;;;3.08;80.64
49827;BME280;35715;51.570;6.036;2023-04-03T06:28:08;103031.13;;;3.21;80.57
49827;BME280;35715;51.570;6.036;2023-04-03T06:30:34;103022.84;;;3.29;79.06
49827;BME280;35715;51.570;6.036;2023-04-03T06:33:00;103037.50;;;3.50;78.74
49827;BME280;35715;51.570;6.036;2023-04-03T06:35:25;103029.44;;;3.47;77.44
49827;BME280;35715;51.570;6.036;2023-04-03T06:37:52;103031.13;;;3.67;78.25
49827;BME280;35715;51.570;6.036;2023-04-03T06:40:21;103033.31;;;3.84;77.46
49827;BME280;35715;51.570;6.036;2023-04-03T06:42:46;103040.63;;;4.01;77.24
49827;BME280;35715;51.570;6.036;2023-04-03T06:45:12;103034.13;;;4.10;76.26
49827;BME280;35715;51.570;6.036;2023-04-03T06:47:37;103029.06;;;4.30;74.65
49827;BME280;35715;51.570;6.036;2023-04-03T06:50:02;103028.16;;;4.84;71.71
49827;BME280;35715;51.570;6.036;2023-04-03T06:52:27;103038.34;;;5.31;69.37
49827;BME280;35715;51.570;6.036;2023-04-03T06:54:53;103037.88;;;5.56;69.60
49827;BME280;35715;51.570;6.036;2023-04-03T06:57:22;103042.16;;;5.84;67.85
49827;BME280;35715;51.570;6.036;2023-04-03T06:59:47;103048.59;;;5.95;66.14
49827;BME280;35715;51.570;6.036;2023-04-03T07:02:12;103040.44;;;6.26;65.17
49827;BME280;35715;51.570;6.036;2023-04-03T07:04:37;103034.44;;;6.33;64.52
49827;BME280;35715;51.570;6.036;2023-04-03T07:07:03;103034.75;;;6.79;63.19
49827;BME280;35715;51.570;6.036;2023-04-03T07:09:28;103025.41;;;6.87;63.32
49827;BME280;35715;51.570;6.036;2023-04-03T07:11:53;103040.44;;;6.84;61.54
49827;BME280;35715;51.570;6.036;2023-04-03T07:14:18;103035.59;;;7.08;60.07
49827;BME280;35715;51.570;6.036;2023-04-03T07:16:45;103054.34;;;7.00;60.86
49827;BME280;35715;51.570;6.036;2023-04-03T07:19:13;103053.97;;;6.90;60.52
49827;BME280;35715;51.570;6.036;2023-04-03T07:21:38;103045.56;;;6.91;59.45
49827;BME280;35715;51.570;6.036;2023-04-03T07:24:03;103057.00;;;7.31;61.68
49827;BME280;35715;51.570;6.036;2023-04-03T07:26:29;103055.94;;;7.14;59.42
49827;BME280;35715;51.570;6.036;2023-04-03T07:28:57;103062.50;;;7.26;59.99
49827;BME280;35715;51.570;6.036;2023-04-03T07:31:22;103057.97;;;7.61;57.86
49827;BME280;35715;51.570;6.036;2023-04-03T07:33:47;103054.72;;;7.93;57.51
49827;BME280;35715;51.570;6.036;2023-04-03T07:36:14;103054.16;;;7.95;57.94
49827;BME280;35715;51.570;6.036;2023-04-03T07:38:40;103063.38;;;8.16;57.43
49827;BME280;35715;51.570;6.036;2023-04-03T07:41:05;103062.06;;;8.20;54.57
49827;BME280;35715;51.570;6.036;2023-04-03T07:43:30;103061.53;;;7.85;54.68
49827;BME280;35715;51.570;6.036;2023-04-03T07:45:56;103069.94;;;8.22;56.08
49827;BME280;35715;51.570;6.036;2023-04-03T07:48:23;103067.91;;;8.26;53.45
49827;BME280;35715;51.570;6.036;2023-04-03T07:50:49;103062.66;;;8.17;53.86
49827;BME280;35715;51.570;6.036;2023-04-03T07:53:15;103068.06;;;8.81;53.77
49827;BME280;35715;51.570;6.036;2023-04-03T07:55:41;103073.25;;;9.13;54.50
49827;BME280;35715;51.570;6.036;2023-04-03T07:58:11;103073.25;;;9.13;50.65
49827;BME280;35715;51.570;6.036;2023-04-03T08:00:37;103072.16;;;9.75;51.60
49827;BME280;35715;51.570;6.036;2023-04-03T08:03:04;103069.03;;;9.30;51.07
49827;BME280;35715;51.570;6.036;2023-04-03T08:05:29;103072.81;;;9.65;51.36
49827;BME280;35715;51.570;6.036;2023-04-03T08:07:56;103079.16;;;9.28;50.23
49827;BME280;35715;51.570;6.036;2023-04-03T08:10:21;103071.16;;;10.06;47.91
49827;BME280;35715;51.570;6.036;2023-04-03T08:12:47;103088.03;;;9.71;48.75
49827;BME280;35715;51.570;6.036;2023-04-03T08:15:12;103077.25;;;9.66;46.63
49827;BME280;35715;51.570;6.036;2023-04-03T08:17:37;103082.13;;;9.72;45.92
49827;BME280;35715;51.570;6.036;2023-04-03T08:20:04;103067.94;;;10.00;46.15
49827;BME280;35715;51.570;6.036;2023-04-03T08:22:29;103063.16;;;10.37;46.03
49827;BME280;35715;51.570;6.036;2023-04-03T08:24:55;103066.47;;;11.03;44.56
49827;BME280;35715;51.570;6.036;2023-04-03T08:27:20;103069.03;;;10.94;44.98
49827;BME280;35715;51.570;6.036;2023-04-03T08:32:14;103069.75;;;11.61;43.37
49827;BME280;35715;51.570;6.036;2023-04-03T08:34:39;103065.63;;;11.37;43.14
49827;BME280;35715;51.570;6.036;2023-04-03T08:37:05;103085.25;;;10.84;42.33
49827;BME280;35715;51.570;6.036;2023-04-03T08:45:55;103078.72;;;10.88;41.99
49827;BME280;35715;51.570;6.036;2023-04-03T08:50:21;103081.03;;;10.93;40.50
49827;BME280;35715;51.570;6.036;2023-04-03T08:52:49;103077.63;;;10.77;38.33
49827;BME280;35715;51.570;6.036;2023-04-03T08:57:53;103076.09;;;11.47;38.94
49827;BME280;35715;51.570;6.036;2023-04-03T09:00:23;103088.00;;;11.63;36.78
49827;BME280;35715;51.570;6.036;2023-04-03T09:02:49;103072.91;;;11.24;36.85
49827;BME280;35715;51.570;6.036;2023-04-03T09:05:19;103077.72;;;11.03;36.00
49827;BME280;35715;51.570;6.036;2023-04-03T09:10:28;103060.00;;;11.67;38.34
49827;BME280;35715;51.570;6.036;2023-04-03T09:12:59;103077.00;;;11.57;35.08
49827;BME280;35715;51.570;6.036;2023-04-03T09:15:28;103083.56;;;11.62;33.66
49827;BME280;35715;51.570;6.036;2023-04-03T09:23:29;103077.63;;;11.80;34.72
49827;BME280;35715;51.570;6.036;2023-04-03T09:26:02;103078.88;;;11.75;33.65
49827;BME280;35715;51.570;6.036;2023-04-03T09:28:43;103080.25;;;11.63;33.15
49827;BME280;35715;51.570;6.036;2023-04-03T09:31:16;103070.41;;;12.39;33.02
49827;BME280;35715;51.570;6.036;2023-04-03T09:33:41;103072.47;;;12.52;34.10
49827;BME280;35715;51.570;6.036;2023-04-03T09:36:07;103067.69;;;12.74;33.02
49827;BME280;35715;51.570;6.036;2023-04-03T09:38:42;103054.03;;;12.12;33.00
49827;BME280;35715;51.570;6.036;2023-04-03T09:41:13;103056.03;;;11.80;31.21
49827;BME280;35715;51.570;6.036;2023-04-03T09:43:40;103060.09;;;12.21;31.46
49827;BME280;35715;51.570;6.036;2023-04-03T09:46:20;103055.66;;;12.29;29.86
49827;BME280;35715;51.570;6.036;2023-04-03T09:48:57;103058.50;;;12.41;31.23
49827;BME280;35715;51.570;6.036;2023-04-03T09:51:24;103062.31;;;13.09;30.02
49827;BME280;35715;51.570;6.036;2023-04-03T09:53:49;103063.94;;;12.62;31.64
49827;BME280;35715;51.570;6.036;2023-04-03T09:58:43;103058.56;;;12.69;32.41
49827;BME280;35715;51.570;6.036;2023-04-03T10:06:29;103064.66;;;12.24;29.81
49827;BME280;35715;51.570;6.036;2023-04-03T10:08:59;103052.84;;;12.54;30.41
49827;BME280;35715;51.570;6.036;2023-04-03T10:11:25;103054.25;;;13.06;27.92
49827;BME280;35715;51.570;6.036;2023-04-03T10:13:55;103049.69;;;13.69;28.08
49827;BME280;35715;51.570;6.036;2023-04-03T10:16:35;103054.38;;;13.07;30.06
49827;BME280;35715;51.570;6.036;2023-04-03T10:21:50;103054.38;;;13.07;26.01
49827;BME280;35715;51.570;6.036;2023-04-03T10:34:48;103026.41;;;12.67;28.11
49827;BME280;35715;51.570;6.036;2023-04-03T10:37:26;103034.25;;;12.86;27.54
49827;BME280;35715;51.570;6.036;2023-04-03T10:45:03;103022.31;;;13.73;26.92
49827;BME280;35715;51.570;6.036;2023-04-03T10:52:57;103024.28;;;13.18;27.03
49827;BME280;35715;51.570;6.036;2023-04-03T10:57:52;103005.19;;;13.45;27.41
49827;BME280;35715;51.570;6.036;2023-04-03T11:00:20;103002.72;;;13.66;28.91
49827;BME280;35715;51.570;6.036;2023-04-03T11:02:54;102993.75;;;13.92;27.02
49827;BME280;35715;51.570;6.036;2023-04-03T11:05:25;102995.81;;;13.86;26.94
49827;BME280;35715;51.570;6.036;2023-04-03T11:07:57;102988.34;;;13.31;26.41
49827;BME280;35715;51.570;6.036;2023-04-03T11:10:30;102992.50;;;13.48;26.32
49827;BME280;35715;51.570;6.036;2023-04-03T11:13:05;102984.97;;;13.32;28.26
49827;BME280;35715;51.570;6.036;2023-04-03T11:15:33;102990.22;;;13.05;27.03
49827;BME280;35715;51.570;6.036;2023-04-03T11:18:00;102986.91;;;12.78;28.58
49827;BME280;35715;51.570;6.036;2023-04-03T11:20:31;102989.66;;;12.80;29.54
49827;BME280;35715;51.570;6.036;2023-04-03T11:25:46;102978.31;;;13.26;28.89
49827;BME280;35715;51.570;6.036;2023-04-03T11:28:15;102990.41;;;12.51;30.48
49827;BME280;35715;51.570;6.036;2023-04-03T11:35:44;102976.94;;;13.29;28.95
49827;BME280;35715;51.570;6.036;2023-04-03T11:38:14;102968.06;;;13.27;28.68
49827;BME280;35715;51.570;6.036;2023-04-03T11:40:42;102973.97;;;13.16;29.74
49827;BME280;35715;51.570;6.036;2023-04-03T11:43:21;102963.22;;;12.65;28.39
49827;BME280;35715;51.570;6.036;2023-04-03T11:45:51;102957.09;;;13.30;30.99
49827;BME280;35715;51.570;6.036;2023-04-03T11:58:33;102943.13;;;12.34;31.18
49827;BME280;35715;51.570;6.036;2023-04-03T12:01:00;102958.50;;;12.33;31.17
49827;BME280;35715;51.570;6.036;2023-04-03T12:03:32;102966.97;;;12.49;30.94
49827;BME280;35715;51.570;6.036;2023-04-03T12:16:04;102945.13;;;13.03;30.33
49827;BME280;35715;51.570;6.036;2023-04-03T12:18:31;102955.09;;;12.42;32.61
49827;BME280;35715;51.570;6.036;2023-04-03T12:20:57;102947.84;;;12.38;32.78
49827;BME280;35715;51.570;6.036;2023-04-03T12:23:33;102949.06;;;11.97;32.47
49827;BME280;35715;51.570;6.036;2023-04-03T12:26:00;102959.88;;;11.93;32.62
49827;BME280;35715;51.570;6.036;2023-04-03T12:28:27;102945.44;;;12.31;32.68
49827;BME280;35715;51.570;6.036;2023-04-03T12:30:53;102938.44;;;12.77;33.24
49827;BME280;35715;51.570;6.036;2023-04-03T12:35:50;102936.25;;;12.35;32.78
49827;BME280;35715;51.570;6.036;2023-04-03T12:41:16;102933.16;;;12.11;33.99
49827;BME280;35715;51.570;6.036;2023-04-03T12:44:06;102920.56;;;12.05;34.00
49827;BME280;35715;51.570;6.036;2023-04-03T12:46:38;102916.06;;;11.85;34.58
49827;BME280;35715;51.570;6.036;2023-04-03T12:51:53;102925.75;;;10.99;34.73
49827;BME280;35715;51.570;6.036;2023-04-03T12:54:19;102894.75;;;10.99;35.92
49827;BME280;35715;51.570;6.036;2023-04-03T12:56:47;102916.78;;;11.04;36.57
49827;BME280;35715;51.570;6.036;2023-04-03T12:59:15;102926.50;;;10.80;35.89
49827;BME280;35715;51.570;6.036;2023-04-03T13:01:41;102921.44;;;10.56;36.66
49827;BME280;35715;51.570;6.036;2023-04-03T13:04:06;102921.63;;;10.66;37.25
49827;BME280;35715;51.570;6.036;2023-04-03T13:06:37;102923.72;;;10.53;37.60
49827;BME280;35715;51.570;6.036;2023-04-03T13:11:33;102924.06;;;10.64;37.21
49827;BME280;35715;51.570;6.036;2023-04-03T13:14:01;102911.44;;;10.76;35.69
49827;BME280;35715;51.570;6.036;2023-04-03T13:16:28;102908.72;;;10.75;37.29
49827;BME280;35715;51.570;6.036;2023-04-03T13:21:40;102905.75;;;10.37;35.86
49827;BME280;35715;51.570;6.036;2023-04-03T13:24:06;102899.88;;;10.46;38.58
49827;BME280;35715;51.570;6.036;2023-04-03T13:26:33;102910.03;;;10.45;37.38
49827;BME280;35715;51.570;6.036;2023-04-03T13:31:44;102897.75;;;10.09;38.88
49827;BME280;35715;51.570;6.036;2023-04-03T13:36:36;102903.84;;;10.18;36.74
49827;BME280;35715;51.570;6.036;2023-04-03T13:41:42;102870.88;;;9.98;37.40
49827;BME280;35715;51.570;6.036;2023-04-03T13:44:14;102882.66;;;9.96;37.15
49827;BME280;35715;51.570;6.036;2023-04-03T13:46:40;102879.84;;;10.10;37.82
49827;BME280;35715;51.570;6.036;2023-04-03T13:51:57;102882.66;;;9.87;37.53
49827;BME280;35715;51.570;6.036;2023-04-03T13:54:23;102869.47;;;9.93;38.71
49827;BME280;35715;51.570;6.036;2023-04-03T13:56:53;102880.41;;;9.90;39.21
49827;BME280;35715;51.570;6.036;2023-04-03T13:59:37;102865.56;;;9.97;39.42
49827;BME280;35715;51.570;6.036;2023-04-03T14:04:28;102876.88;;;9.90;37.78
49827;BME280;35715;51.570;6.036;2023-04-03T14:06:55;102852.34;;;9.93;37.59
49827;BME280;35715;51.570;6.036;2023-04-03T14:11:52;102864.84;;;9.73;40.47
49827;BME280;35715;51.570;6.036;2023-04-03T14:14:19;102857.19;;;9.57;38.14
49827;BME280;35715;51.570;6.036;2023-04-03T14:16:48;102852.69;;;9.63;37.22
49827;BME280;35715;51.570;6.036;2023-04-03T14:19:22;102836.38;;;9.80;39.61
49827;BME280;35715;51.570;6.036;2023-04-03T14:21:48;102860.81;;;9.92;39.69
49827;BME280;35715;51.570;6.036;2023-04-03T14:24:13;102844.06;;;9.71;37.73
49827;BME280;35715;51.570;6.036;2023-04-03T14:26:38;102846.31;;;9.68;39.26
49827;BME280;35715;51.570;6.036;2023-04-03T14:29:12;102843.91;;;9.70;38.27
49827;BME280;35715;51.570;6.036;2023-04-03T14:31:37;102844.06;;;9.71;40.63
49827;BME280;35715;51.570;6.036;2023-04-03T14:34:03;102852.22;;;9.67;38.05
49827;BME280;35715;51.570;6.036;2023-04-03T14:36:28;102841.91;;;9.67;38.83
49827;BME280;35715;51.570;6.036;2023-04-03T14:38:54;102844.31;;;9.66;38.49
49827;BME280;35715;51.570;6.036;2023-04-03T14:41:21;102832.38;;;9.66;39.27
49827;BME280;35715;51.570;6.036;2023-04-03T14:43:47;102849.94;;;9.62;40.34
49827;BME280;35715;51.570;6.036;2023-04-03T14:46:13;102848.63;;;9.74;41.42
49827;BME280;35715;51.570;6.036;2023-04-03T14:48:40;102836.94;;;9.77;39.23
49827;BME280;35715;51.570;6.036;2023-04-03T14:51:05;102833.97;;;9.90;38.81
49827;BME280;35715;51.570;6.036;2023-04-03T14:53:30;102828.63;;;9.80;38.21
49827;BME280;35715;51.570;6.036;2023-04-03T14:55:57;102826.09;;;9.98;39.14
49827;BME280;35715;51.570;6.036;2023-04-03T14:58:29;102808.81;;;9.97;41.31
49827;BME280;35715;51.570;6.036;2023-04-03T15:00:54;102835.06;;;9.59;40.87
49827;BME280;35715;51.570;6.036;2023-04-03T15:03:20;102833.22;;;9.58;39.71